sensor_id;sensor_type;location;lat;lon;timestamp;P1;durP1;ratioP1;P2;durP2;ratioP2
68250;SDS011;55066;51.560;4.642;2023-08-24T00:01:16;7.40;;;2.90;;
68250;SDS011;55066;51.560;4.642;2023-08-24T00:03:43;6.75;;;3.10;;
68250;SDS011;55066;51.560;4.642;2023-08-24T00:06:11;7.20;;;2.90;;
68250;SDS011;55066;51.560;4.642;2023-08-24T00:08:37;7.75;;;3.13;;
68250;SDS011;55066;51.560;4.642;2023-08-24T00:11:02;6.63;;;2.90;;
68250;SDS011;55066;51.560;4.642;2023-08-24T00:13:28;7.83;;;3.20;;
68250;SDS011;55066;51.560;4.642;2023-08-24T00:15:53;9.20;;;3.07;;
68250;SDS011;55066;51.560;4.642;2023-08-24T00:18:19;7.13;;;3.03;;
68250;SDS011;55066;51.560;4.642;2023-08-24T00:20:48;7.03;;;3.17;;
68250;SDS011;55066;51.560;4.642;2023-08-24T00:23:14;6.27;;;2.90;;
68250;SDS011;55066;51.560;4.642;2023-08-24T00:25:39;9.10;;;3.10;;
68250;SDS011;55066;51.560;4.642;2023-08-24T00:28:08;6.72;;;3.08;;
68250;SDS011;55066;51.560;4.642;2023-08-24T00:30:34;9.27;;;3.23;;
68250;SDS011;55066;51.560;4.642;2023-08-24T00:32:59;7.18;;;3.20;;
68250;SDS011;55066;51.560;4.642;2023-08-24T00:35:26;7.00;;;3.33;;
68250;SDS011;55066;51.560;4.642;2023-08-24T00:37:51;6.53;;;3.20;;
68250;SDS011;55066;51.560;4.642;2023-08-24T00:40:17;9.73;;;3.07;;
68250;SDS011;55066;51.560;4.642;2023-08-24T00:42:43;5.97;;;2.90;;
68250;SDS011;55066;51.560;4.642;2023-08-24T00:45:11;5.78;;;3.22;;
68250;SDS011;55066;51.560;4.642;2023-08-24T00:47:37;9.75;;;3.25;;
68250;SDS011;55066;51.560;4.642;2023-08-24T00:50:06;6.97;;;3.27;;
68250;SDS011;55066;51.560;4.642;2023-08-24T00:52:33;7.35;;;3.30;;
68250;SDS011;55066;51.560;4.642;2023-08-24T00:55:00;9.00;;;3.60;;
68250;SDS011;55066;51.560;4.642;2023-08-24T00:57:27;9.45;;;3.40;;
68250;SDS011;55066;51.560;4.642;2023-08-24T00:59:53;6.05;;;3.50;;
68250;SDS011;55066;51.560;4.642;2023-08-24T01:02:19;7.47;;;3.53;;
68250;SDS011;55066;51.560;4.642;2023-08-24T01:04:46;7.50;;;3.45;;
68250;SDS011;55066;51.560;4.642;2023-08-24T01:07:12;7.38;;;3.20;;
68250;SDS011;55066;51.560;4.642;2023-08-24T01:09:38;6.37;;;3.20;;
68250;SDS011;55066;51.560;4.642;2023-08-24T01:12:05;9.02;;;3.22;;
68250;SDS011;55066;51.560;4.642;2023-08-24T01:14:58;8.63;;;3.38;;
68250;SDS011;55066;51.560;4.642;2023-08-24T01:17:35;7.78;;;3.60;;
68250;SDS011;55066;51.560;4.642;2023-08-24T01:20:04;11.25;;;3.67;;
68250;SDS011;55066;51.560;4.642;2023-08-24T01:27:59;6.57;;;3.33;;
68250;SDS011;55066;51.560;4.642;2023-08-24T01:30:27;9.05;;;3.50;;
68250;SDS011;55066;51.560;4.642;2023-08-24T01:32:53;13.52;;;3.60;;
68250;SDS011;55066;51.560;4.642;2023-08-24T01:35:19;7.40;;;3.73;;
68250;SDS011;55066;51.560;4.642;2023-08-24T01:37:45;8.23;;;3.73;;
68250;SDS011;55066;51.560;4.642;2023-08-24T01:40:45;6.88;;;3.28;;
68250;SDS011;55066;51.560;4.642;2023-08-24T01:43:07;7.80;;;3.80;;
68250;SDS011;55066;51.560;4.642;2023-08-24T01:45:35;8.10;;;3.40;;
68250;SDS011;55066;51.560;4.642;2023-08-24T01:48:02;8.15;;;3.55;;
68250;SDS011;55066;51.560;4.642;2023-08-24T01:50:28;7.97;;;4.10;;
68250;SDS011;55066;51.560;4.642;2023-08-24T01:52:55;7.40;;;3.80;;
68250;SDS011;55066;51.560;4.642;2023-08-24T01:55:21;9.02;;;3.80;;
68250;SDS011;55066;51.560;4.642;2023-08-24T01:57:48;7.95;;;3.75;;
68250;SDS011;55066;51.560;4.642;2023-08-24T02:00:14;6.45;;;3.75;;
68250;SDS011;55066;51.560;4.642;2023-08-24T02:02:41;7.80;;;3.60;;
68250;SDS011;55066;51.560;4.642;2023-08-24T02:05:07;8.40;;;3.63;;
68250;SDS011;55066;51.560;4.642;2023-08-24T02:07:33;10.18;;;4.40;;
68250;SDS011;55066;51.560;4.642;2023-08-24T02:09:58;8.87;;;4.03;;
68250;SDS011;55066;51.560;4.642;2023-08-24T02:12:24;8.57;;;4.30;;
68250;SDS011;55066;51.560;4.642;2023-08-24T02:14:49;11.07;;;4.30;;
68250;SDS011;55066;51.560;4.642;2023-08-24T02:17:15;10.20;;;4.10;;
68250;SDS011;55066;51.560;4.642;2023-08-24T02:19:40;10.27;;;4.10;;
68250;SDS011;55066;51.560;4.642;2023-08-24T02:22:08;11.20;;;4.07;;
68250;SDS011;55066;51.560;4.642;2023-08-24T02:24:33;12.02;;;4.57;;
68250;SDS011;55066;51.560;4.642;2023-08-24T02:26:59;11.97;;;4.60;;
68250;SDS011;55066;51.560;4.642;2023-08-24T02:29:25;10.65;;;4.45;;
68250;SDS011;55066;51.560;4.642;2023-08-24T02:31:50;10.73;;;4.53;;
68250;SDS011;55066;51.560;4.642;2023-08-24T02:34:17;11.68;;;4.97;;
68250;SDS011;55066;51.560;4.642;2023-08-24T02:36:42;11.18;;;4.85;;
68250;SDS011;55066;51.560;4.642;2023-08-24T02:39:08;10.20;;;5.00;;
68250;SDS011;55066;51.560;4.642;2023-08-24T02:41:34;12.37;;;5.00;;
68250;SDS011;55066;51.560;4.642;2023-08-24T02:43:59;11.30;;;5.05;;
68250;SDS011;55066;51.560;4.642;2023-08-24T02:46:25;10.02;;;5.10;;
68250;SDS011;55066;51.560;4.642;2023-08-24T02:48:50;14.30;;;5.70;;
68250;SDS011;55066;51.560;4.642;2023-08-24T02:51:17;9.85;;;5.07;;
68250;SDS011;55066;51.560;4.642;2023-08-24T02:53:42;11.07;;;5.50;;
68250;SDS011;55066;51.560;4.642;2023-08-24T02:56:08;9.83;;;5.53;;
68250;SDS011;55066;51.560;4.642;2023-08-24T02:58:34;10.90;;;5.13;;
68250;SDS011;55066;51.560;4.642;2023-08-24T03:01:03;9.77;;;5.20;;
68250;SDS011;55066;51.560;4.642;2023-08-24T03:03:32;10.20;;;5.20;;
68250;SDS011;55066;51.560;4.642;2023-08-24T03:05:59;9.15;;;5.18;;
68250;SDS011;55066;51.560;4.642;2023-08-24T03:08:28;11.20;;;5.45;;
68250;SDS011;55066;51.560;4.642;2023-08-24T03:10:58;11.37;;;5.23;;
68250;SDS011;55066;51.560;4.642;2023-08-24T03:13:24;10.35;;;4.97;;
68250;SDS011;55066;51.560;4.642;2023-08-24T03:15:50;11.50;;;5.22;;
68250;SDS011;55066;51.560;4.642;2023-08-24T03:18:18;12.43;;;5.22;;
68250;SDS011;55066;51.560;4.642;2023-08-24T03:20:44;10.13;;;4.93;;
68250;SDS011;55066;51.560;4.642;2023-08-24T03:23:12;9.70;;;5.13;;
68250;SDS011;55066;51.560;4.642;2023-08-24T03:25:39;11.13;;;5.60;;
68250;SDS011;55066;51.560;4.642;2023-08-24T03:28:07;11.73;;;5.22;;
68250;SDS011;55066;51.560;4.642;2023-08-24T03:30:34;14.20;;;5.77;;
68250;SDS011;55066;51.560;4.642;2023-08-24T03:33:00;9.55;;;5.30;;
68250;SDS011;55066;51.560;4.642;2023-08-24T03:35:32;16.45;;;6.10;;
68250;SDS011;55066;51.560;4.642;2023-08-24T03:37:58;21.77;;;5.80;;
68250;SDS011;55066;51.560;4.642;2023-08-24T03:40:25;15.95;;;5.85;;
68250;SDS011;55066;51.560;4.642;2023-08-24T03:42:50;10.97;;;5.73;;
68250;SDS011;55066;51.560;4.642;2023-08-24T03:45:16;10.27;;;5.63;;
68250;SDS011;55066;51.560;4.642;2023-08-24T03:47:43;10.43;;;5.63;;
68250;SDS011;55066;51.560;4.642;2023-08-24T03:50:09;10.40;;;5.70;;
68250;SDS011;55066;51.560;4.642;2023-08-24T03:52:35;10.35;;;5.85;;
68250;SDS011;55066;51.560;4.642;2023-08-24T03:55:00;10.13;;;5.97;;
68250;SDS011;55066;51.560;4.642;2023-08-24T03:57:26;14.60;;;6.20;;
68250;SDS011;55066;51.560;4.642;2023-08-24T03:59:52;11.03;;;5.80;;
68250;SDS011;55066;51.560;4.642;2023-08-24T04:02:18;14.63;;;6.85;;
68250;SDS011;55066;51.560;4.642;2023-08-24T04:04:44;12.03;;;6.47;;
68250;SDS011;55066;51.560;4.642;2023-08-24T04:07:11;10.15;;;6.13;;
68250;SDS011;55066;51.560;4.642;2023-08-24T04:09:37;11.73;;;6.32;;
68250;SDS011;55066;51.560;4.642;2023-08-24T04:12:02;15.63;;;7.17;;
68250;SDS011;55066;51.560;4.642;2023-08-24T04:14:28;13.03;;;7.20;;
68250;SDS011;55066;51.560;4.642;2023-08-24T04:16:54;15.77;;;6.47;;
68250;SDS011;55066;51.560;4.642;2023-08-24T04:19:21;14.93;;;6.57;;
68250;SDS011;55066;51.560;4.642;2023-08-24T04:21:46;11.07;;;5.83;;
68250;SDS011;55066;51.560;4.642;2023-08-24T04:24:11;12.83;;;6.87;;
68250;SDS011;55066;51.560;4.642;2023-08-24T04:26:37;13.85;;;6.57;;
68250;SDS011;55066;51.560;4.642;2023-08-24T04:29:02;10.57;;;5.60;;
68250;SDS011;55066;51.560;4.642;2023-08-24T04:31:28;14.37;;;7.10;;
68250;SDS011;55066;51.560;4.642;2023-08-24T04:33:53;14.43;;;7.47;;
68250;SDS011;55066;51.560;4.642;2023-08-24T04:36:19;16.93;;;7.47;;
68250;SDS011;55066;51.560;4.642;2023-08-24T04:38:44;16.65;;;7.35;;
68250;SDS011;55066;51.560;4.642;2023-08-24T04:41:10;16.20;;;7.43;;
68250;SDS011;55066;51.560;4.642;2023-08-24T04:43:37;16.08;;;7.93;;
68250;SDS011;55066;51.560;4.642;2023-08-24T04:46:03;13.07;;;7.47;;
68250;SDS011;55066;51.560;4.642;2023-08-24T04:48:29;13.02;;;7.10;;
68250;SDS011;55066;51.560;4.642;2023-08-24T04:50:58;17.77;;;7.18;;
68250;SDS011;55066;51.560;4.642;2023-08-24T04:53:24;14.73;;;7.32;;
68250;SDS011;55066;51.560;4.642;2023-08-24T04:55:49;21.80;;;8.13;;
68250;SDS011;55066;51.560;4.642;2023-08-24T04:58:15;14.32;;;7.57;;
68250;SDS011;55066;51.560;4.642;2023-08-24T05:00:41;19.07;;;7.97;;
68250;SDS011;55066;51.560;4.642;2023-08-24T05:03:07;18.80;;;8.43;;
68250;SDS011;55066;51.560;4.642;2023-08-24T05:05:33;16.40;;;7.80;;
68250;SDS011;55066;51.560;4.642;2023-08-24T05:08:00;15.07;;;8.38;;
68250;SDS011;55066;51.560;4.642;2023-08-24T05:10:30;19.47;;;8.57;;
68250;SDS011;55066;51.560;4.642;2023-08-24T05:12:57;21.13;;;8.50;;
68250;SDS011;55066;51.560;4.642;2023-08-24T05:15:23;17.87;;;8.50;;
68250;SDS011;55066;51.560;4.642;2023-08-24T05:17:48;19.08;;;8.40;;
68250;SDS011;55066;51.560;4.642;2023-08-24T05:20:15;15.70;;;8.02;;
68250;SDS011;55066;51.560;4.642;2023-08-24T05:22:40;14.90;;;8.47;;
68250;SDS011;55066;51.560;4.642;2023-08-24T05:25:06;15.60;;;8.40;;
68250;SDS011;55066;51.560;4.642;2023-08-24T05:27:32;17.88;;;8.73;;
68250;SDS011;55066;51.560;4.642;2023-08-24T05:29:58;22.47;;;8.87;;
68250;SDS011;55066;51.560;4.642;2023-08-24T05:32:23;16.00;;;8.77;;
68250;SDS011;55066;51.560;4.642;2023-08-24T05:34:49;19.60;;;9.60;;
68250;SDS011;55066;51.560;4.642;2023-08-24T05:37:15;21.93;;;9.60;;
68250;SDS011;55066;51.560;4.642;2023-08-24T05:39:41;15.23;;;9.10;;
68250;SDS011;55066;51.560;4.642;2023-08-24T05:42:07;22.30;;;9.93;;
68250;SDS011;55066;51.560;4.642;2023-08-24T05:44:33;19.23;;;10.07;;
68250;SDS011;55066;51.560;4.642;2023-08-24T05:46:58;19.83;;;10.10;;
68250;SDS011;55066;51.560;4.642;2023-08-24T05:49:24;21.33;;;9.83;;
68250;SDS011;55066;51.560;4.642;2023-08-24T05:51:50;23.85;;;10.70;;
68250;SDS011;55066;51.560;4.642;2023-08-24T05:54:16;23.70;;;10.87;;
68250;SDS011;55066;51.560;4.642;2023-08-24T05:56:45;18.48;;;10.32;;
68250;SDS011;55066;51.560;4.642;2023-08-24T05:59:11;20.73;;;10.95;;
68250;SDS011;55066;51.560;4.642;2023-08-24T06:01:36;17.73;;;10.37;;
68250;SDS011;55066;51.560;4.642;2023-08-24T06:04:06;22.70;;;10.63;;
68250;SDS011;55066;51.560;4.642;2023-08-24T06:06:35;18.13;;;10.25;;
68250;SDS011;55066;51.560;4.642;2023-08-24T06:09:01;21.50;;;10.10;;
68250;SDS011;55066;51.560;4.642;2023-08-24T06:11:29;21.57;;;10.33;;
68250;SDS011;55066;51.560;4.642;2023-08-24T06:13:54;20.50;;;10.32;;
68250;SDS011;55066;51.560;4.642;2023-08-24T06:16:20;20.97;;;11.03;;
68250;SDS011;55066;51.560;4.642;2023-08-24T06:18:45;22.67;;;11.00;;
68250;SDS011;55066;51.560;4.642;2023-08-24T06:21:11;20.97;;;10.67;;
68250;SDS011;55066;51.560;4.642;2023-08-24T06:23:36;19.27;;;10.68;;
68250;SDS011;55066;51.560;4.642;2023-08-24T06:26:02;23.13;;;10.77;;
68250;SDS011;55066;51.560;4.642;2023-08-24T06:28:27;20.73;;;10.60;;
68250;SDS011;55066;51.560;4.642;2023-08-24T06:30:54;21.45;;;10.85;;
68250;SDS011;55066;51.560;4.642;2023-08-24T06:33:20;22.23;;;10.80;;
68250;SDS011;55066;51.560;4.642;2023-08-24T06:35:45;21.30;;;11.43;;
68250;SDS011;55066;51.560;4.642;2023-08-24T06:38:11;24.10;;;10.47;;
68250;SDS011;55066;51.560;4.642;2023-08-24T06:40:36;20.77;;;11.10;;
68250;SDS011;55066;51.560;4.642;2023-08-24T06:43:02;20.00;;;11.37;;
68250;SDS011;55066;51.560;4.642;2023-08-24T06:45:27;22.97;;;12.03;;
68250;SDS011;55066;51.560;4.642;2023-08-24T06:47:53;20.60;;;11.40;;
68250;SDS011;55066;51.560;4.642;2023-08-24T06:50:19;23.53;;;11.53;;
68250;SDS011;55066;51.560;4.642;2023-08-24T06:52:45;23.30;;;11.43;;
68250;SDS011;55066;51.560;4.642;2023-08-24T06:55:10;20.13;;;11.10;;
68250;SDS011;55066;51.560;4.642;2023-08-24T06:57:37;21.38;;;11.00;;
68250;SDS011;55066;51.560;4.642;2023-08-24T07:00:03;21.07;;;11.37;;
68250;SDS011;55066;51.560;4.642;2023-08-24T07:02:32;24.75;;;10.75;;
68250;SDS011;55066;51.560;4.642;2023-08-24T07:04:58;22.48;;;10.95;;
68250;SDS011;55066;51.560;4.642;2023-08-24T07:07:24;21.50;;;11.27;;
68250;SDS011;55066;51.560;4.642;2023-08-24T07:09:50;19.48;;;11.52;;
68250;SDS011;55066;51.560;4.642;2023-08-24T07:12:16;21.20;;;10.50;;
68250;SDS011;55066;51.560;4.642;2023-08-24T07:14:43;18.30;;;10.43;;
68250;SDS011;55066;51.560;4.642;2023-08-24T07:17:08;20.98;;;10.75;;
68250;SDS011;55066;51.560;4.642;2023-08-24T07:19:34;19.57;;;10.50;;
68250;SDS011;55066;51.560;4.642;2023-08-24T07:21:59;20.60;;;11.17;;
68250;SDS011;55066;51.560;4.642;2023-08-24T07:24:24;17.27;;;10.60;;
68250;SDS011;55066;51.560;4.642;2023-08-24T07:26:54;19.42;;;10.43;;
68250;SDS011;55066;51.560;4.642;2023-08-24T07:29:20;20.42;;;10.35;;
68250;SDS011;55066;51.560;4.642;2023-08-24T07:31:46;20.63;;;10.73;;
68250;SDS011;55066;51.560;4.642;2023-08-24T07:34:12;19.77;;;10.45;;
68250;SDS011;55066;51.560;4.642;2023-08-24T07:36:37;26.73;;;10.83;;
68250;SDS011;55066;51.560;4.642;2023-08-24T07:39:03;18.77;;;9.80;;
68250;SDS011;55066;51.560;4.642;2023-08-24T07:41:28;17.75;;;10.23;;
68250;SDS011;55066;51.560;4.642;2023-08-24T07:43:54;19.23;;;9.33;;
68250;SDS011;55066;51.560;4.642;2023-08-24T07:46:20;16.47;;;9.93;;
68250;SDS011;55066;51.560;4.642;2023-08-24T07:48:46;17.92;;;9.20;;
68250;SDS011;55066;51.560;4.642;2023-08-24T07:51:12;18.42;;;9.50;;
68250;SDS011;55066;51.560;4.642;2023-08-24T07:53:37;18.07;;;10.10;;
68250;SDS011;55066;51.560;4.642;2023-08-24T07:56:03;17.53;;;9.70;;
68250;SDS011;55066;51.560;4.642;2023-08-24T07:58:29;20.45;;;9.50;;
68250;SDS011;55066;51.560;4.642;2023-08-24T08:00:57;21.00;;;10.27;;
68250;SDS011;55066;51.560;4.642;2023-08-24T08:03:24;15.27;;;9.13;;
68250;SDS011;55066;51.560;4.642;2023-08-24T08:05:49;17.40;;;9.40;;
68250;SDS011;55066;51.560;4.642;2023-08-24T08:08:15;17.00;;;9.30;;
68250;SDS011;55066;51.560;4.642;2023-08-24T08:10:41;16.60;;;9.60;;
68250;SDS011;55066;51.560;4.642;2023-08-24T08:13:08;21.80;;;9.98;;
68250;SDS011;55066;51.560;4.642;2023-08-24T08:15:35;17.75;;;9.50;;
68250;SDS011;55066;51.560;4.642;2023-08-24T08:18:03;15.90;;;9.30;;
68250;SDS011;55066;51.560;4.642;2023-08-24T08:20:29;15.30;;;9.05;;
68250;SDS011;55066;51.560;4.642;2023-08-24T08:22:55;17.75;;;9.32;;
68250;SDS011;55066;51.560;4.642;2023-08-24T08:25:21;19.57;;;8.87;;
68250;SDS011;55066;51.560;4.642;2023-08-24T08:27:47;19.40;;;9.45;;
68250;SDS011;55066;51.560;4.642;2023-08-24T08:30:13;17.35;;;9.35;;
68250;SDS011;55066;51.560;4.642;2023-08-24T08:32:40;19.50;;;9.55;;
68250;SDS011;55066;51.560;4.642;2023-08-24T08:35:06;15.00;;;9.47;;
68250;SDS011;55066;51.560;4.642;2023-08-24T08:37:32;18.20;;;9.38;;
68250;SDS011;55066;51.560;4.642;2023-08-24T08:39:57;18.70;;;9.40;;
68250;SDS011;55066;51.560;4.642;2023-08-24T08:42:23;16.97;;;9.60;;
68250;SDS011;55066;51.560;4.642;2023-08-24T08:44:48;18.25;;;9.68;;
68250;SDS011;55066;51.560;4.642;2023-08-24T08:47:15;20.63;;;9.88;;
68250;SDS011;55066;51.560;4.642;2023-08-24T08:49:43;19.93;;;9.93;;
68250;SDS011;55066;51.560;4.642;2023-08-24T08:52:12;17.00;;;9.45;;
68250;SDS011;55066;51.560;4.642;2023-08-24T08:54:37;17.63;;;9.30;;
68250;SDS011;55066;51.560;4.642;2023-08-24T08:57:03;18.10;;;9.73;;
68250;SDS011;55066;51.560;4.642;2023-08-24T08:59:29;18.60;;;9.10;;
68250;SDS011;55066;51.560;4.642;2023-08-24T09:01:58;16.35;;;9.32;;
68250;SDS011;55066;51.560;4.642;2023-08-24T09:04:26;18.52;;;9.88;;
68250;SDS011;55066;51.560;4.642;2023-08-24T09:06:54;17.88;;;8.95;;
68250;SDS011;55066;51.560;4.642;2023-08-24T09:09:21;19.58;;;9.45;;
68250;SDS011;55066;51.560;4.642;2023-08-24T09:11:48;19.63;;;9.67;;
68250;SDS011;55066;51.560;4.642;2023-08-24T09:14:13;26.42;;;9.98;;
68250;SDS011;55066;51.560;4.642;2023-08-24T09:16:39;17.88;;;9.45;;
68250;SDS011;55066;51.560;4.642;2023-08-24T09:19:06;21.03;;;8.93;;
68250;SDS011;55066;51.560;4.642;2023-08-24T09:21:38;18.50;;;9.52;;
68250;SDS011;55066;51.560;4.642;2023-08-24T09:24:05;17.10;;;9.77;;
68250;SDS011;55066;51.560;4.642;2023-08-24T09:26:32;18.85;;;8.77;;
68250;SDS011;55066;51.560;4.642;2023-08-24T09:28:59;14.95;;;8.75;;
68250;SDS011;55066;51.560;4.642;2023-08-24T09:31:38;16.73;;;8.67;;
68250;SDS011;55066;51.560;4.642;2023-08-24T09:34:04;16.83;;;8.88;;
68250;SDS011;55066;51.560;4.642;2023-08-24T09:36:31;16.73;;;9.80;;
68250;SDS011;55066;51.560;4.642;2023-08-24T09:38:58;18.05;;;9.60;;
68250;SDS011;55066;51.560;4.642;2023-08-24T09:41:36;16.60;;;9.95;;
68250;SDS011;55066;51.560;4.642;2023-08-24T09:44:16;17.87;;;9.77;;
68250;SDS011;55066;51.560;4.642;2023-08-24T09:46:42;18.27;;;9.82;;
68250;SDS011;55066;51.560;4.642;2023-08-24T09:49:09;16.02;;;10.02;;
68250;SDS011;55066;51.560;4.642;2023-08-24T09:51:37;15.18;;;9.98;;
68250;SDS011;55066;51.560;4.642;2023-08-24T09:54:07;16.33;;;10.43;;
68250;SDS011;55066;51.560;4.642;2023-08-24T09:56:38;17.87;;;10.10;;
68250;SDS011;55066;51.560;4.642;2023-08-24T09:59:07;16.35;;;10.65;;
68250;SDS011;55066;51.560;4.642;2023-08-24T10:01:47;19.00;;;10.50;;
68250;SDS011;55066;51.560;4.642;2023-08-24T10:04:16;19.90;;;11.07;;
68250;SDS011;55066;51.560;4.642;2023-08-24T10:06:46;16.60;;;10.30;;
68250;SDS011;55066;51.560;4.642;2023-08-24T10:09:21;18.03;;;11.03;;
68250;SDS011;55066;51.560;4.642;2023-08-24T10:11:52;18.40;;;10.77;;
68250;SDS011;55066;51.560;4.642;2023-08-24T10:17:10;17.55;;;11.10;;
68250;SDS011;55066;51.560;4.642;2023-08-24T10:19:36;19.93;;;11.60;;
68250;SDS011;55066;51.560;4.642;2023-08-24T10:22:02;23.73;;;12.43;;
68250;SDS011;55066;51.560;4.642;2023-08-24T10:24:29;24.60;;;13.07;;
68250;SDS011;55066;51.560;4.642;2023-08-24T10:26:56;22.40;;;13.05;;
68250;SDS011;55066;51.560;4.642;2023-08-24T10:29:23;22.67;;;13.73;;
68250;SDS011;55066;51.560;4.642;2023-08-24T10:31:50;23.63;;;14.23;;
68250;SDS011;55066;51.560;4.642;2023-08-24T10:34:16;21.33;;;14.23;;
68250;SDS011;55066;51.560;4.642;2023-08-24T10:36:42;21.10;;;14.40;;
68250;SDS011;55066;51.560;4.642;2023-08-24T10:39:07;23.20;;;13.73;;
68250;SDS011;55066;51.560;4.642;2023-08-24T10:41:46;23.70;;;13.10;;
68250;SDS011;55066;51.560;4.642;2023-08-24T10:44:19;22.70;;;13.15;;
68250;SDS011;55066;51.560;4.642;2023-08-24T10:50:00;24.47;;;12.13;;
68250;SDS011;55066;51.560;4.642;2023-08-24T10:55:02;24.38;;;12.93;;
68250;SDS011;55066;51.560;4.642;2023-08-24T10:57:35;21.55;;;13.20;;
68250;SDS011;55066;51.560;4.642;2023-08-24T11:00:07;26.10;;;13.00;;
68250;SDS011;55066;51.560;4.642;2023-08-24T11:02:41;20.27;;;13.00;;
68250;SDS011;55066;51.560;4.642;2023-08-24T11:05:23;20.35;;;13.23;;
68250;SDS011;55066;51.560;4.642;2023-08-24T11:10:19;22.90;;;13.95;;
68250;SDS011;55066;51.560;4.642;2023-08-24T11:21:05;26.95;;;13.20;;
68250;SDS011;55066;51.560;4.642;2023-08-24T11:23:31;21.80;;;12.75;;
68250;SDS011;55066;51.560;4.642;2023-08-24T11:25:58;18.10;;;12.33;;
68250;SDS011;55066;51.560;4.642;2023-08-24T11:28:25;22.23;;;12.43;;
68250;SDS011;55066;51.560;4.642;2023-08-24T11:30:52;22.92;;;12.85;;
68250;SDS011;55066;51.560;4.642;2023-08-24T11:33:31;20.25;;;12.80;;
68250;SDS011;55066;51.560;4.642;2023-08-24T11:35:58;19.60;;;12.45;;
68250;SDS011;55066;51.560;4.642;2023-08-24T11:38:24;23.07;;;12.73;;
68250;SDS011;55066;51.560;4.642;2023-08-24T11:40:50;23.48;;;13.40;;
68250;SDS011;55066;51.560;4.642;2023-08-24T11:43:25;22.13;;;13.13;;
68250;SDS011;55066;51.560;4.642;2023-08-24T11:45:52;25.17;;;13.27;;
68250;SDS011;55066;51.560;4.642;2023-08-24T11:48:23;21.35;;;13.15;;
68250;SDS011;55066;51.560;4.642;2023-08-24T11:50:49;21.80;;;12.77;;
68250;SDS011;55066;51.560;4.642;2023-08-24T11:53:16;20.75;;;13.15;;
68250;SDS011;55066;51.560;4.642;2023-08-24T11:55:42;18.63;;;11.52;;
68250;SDS011;55066;51.560;4.642;2023-08-24T11:58:15;21.03;;;11.23;;
68250;SDS011;55066;51.560;4.642;2023-08-24T12:00:43;18.75;;;11.18;;
68250;SDS011;55066;51.560;4.642;2023-08-24T12:03:11;19.42;;;11.20;;
68250;SDS011;55066;51.560;4.642;2023-08-24T12:05:37;17.17;;;11.00;;
68250;SDS011;55066;51.560;4.642;2023-08-24T12:08:03;16.70;;;10.73;;
68250;SDS011;55066;51.560;4.642;2023-08-24T12:10:28;16.85;;;9.40;;
68250;SDS011;55066;51.560;4.642;2023-08-24T12:13:03;16.37;;;8.50;;
68250;SDS011;55066;51.560;4.642;2023-08-24T12:15:36;18.02;;;9.90;;
68250;SDS011;55066;51.560;4.642;2023-08-24T12:18:09;15.93;;;8.10;;
68250;SDS011;55066;51.560;4.642;2023-08-24T12:20:39;14.93;;;7.30;;
68250;SDS011;55066;51.560;4.642;2023-08-24T12:23:05;12.13;;;6.70;;
68250;SDS011;55066;51.560;4.642;2023-08-24T12:25:35;14.13;;;6.17;;
68250;SDS011;55066;51.560;4.642;2023-08-24T12:28:10;12.95;;;5.72;;
68250;SDS011;55066;51.560;4.642;2023-08-24T12:30:49;10.80;;;6.05;;
68250;SDS011;55066;51.560;4.642;2023-08-24T12:33:22;10.52;;;6.68;;
68250;SDS011;55066;51.560;4.642;2023-08-24T12:35:48;10.32;;;6.20;;
68250;SDS011;55066;51.560;4.642;2023-08-24T12:38:14;14.03;;;6.80;;
68250;SDS011;55066;51.560;4.642;2023-08-24T12:40:39;12.02;;;6.50;;
68250;SDS011;55066;51.560;4.642;2023-08-24T12:43:05;14.13;;;6.70;;
68250;SDS011;55066;51.560;4.642;2023-08-24T12:45:31;10.63;;;6.20;;
68250;SDS011;55066;51.560;4.642;2023-08-24T12:47:56;12.23;;;5.93;;
68250;SDS011;55066;51.560;4.642;2023-08-24T12:50:22;12.17;;;5.93;;
68250;SDS011;55066;51.560;4.642;2023-08-24T12:52:47;16.90;;;6.05;;
68250;SDS011;55066;51.560;4.642;2023-08-24T12:55:13;11.43;;;5.90;;
68250;SDS011;55066;51.560;4.642;2023-08-24T12:57:38;11.47;;;5.97;;
68250;SDS011;55066;51.560;4.642;2023-08-24T13:00:04;10.77;;;5.83;;
68250;SDS011;55066;51.560;4.642;2023-08-24T13:02:31;9.20;;;5.53;;
68250;SDS011;55066;51.560;4.642;2023-08-24T13:04:56;8.67;;;5.30;;
68250;SDS011;55066;51.560;4.642;2023-08-24T13:07:26;10.40;;;5.13;;
68250;SDS011;55066;51.560;4.642;2023-08-24T13:09:51;11.23;;;5.05;;
68250;SDS011;55066;51.560;4.642;2023-08-24T13:12:17;10.90;;;5.07;;
68250;SDS011;55066;51.560;4.642;2023-08-24T13:14:42;9.57;;;5.30;;
68250;SDS011;55066;51.560;4.642;2023-08-24T13:17:08;12.33;;;5.47;;
68250;SDS011;55066;51.560;4.642;2023-08-24T13:19:33;10.77;;;4.97;;
68250;SDS011;55066;51.560;4.642;2023-08-24T13:21:59;10.37;;;4.97;;
68250;SDS011;55066;51.560;4.642;2023-08-24T13:24:24;9.70;;;5.27;;
68250;SDS011;55066;51.560;4.642;2023-08-24T13:26:49;11.47;;;5.03;;
68250;SDS011;55066;51.560;4.642;2023-08-24T13:29:15;11.05;;;5.80;;
68250;SDS011;55066;51.560;4.642;2023-08-24T13:31:40;13.47;;;6.67;;
68250;SDS011;55066;51.560;4.642;2023-08-24T13:34:06;10.43;;;5.70;;
68250;SDS011;55066;51.560;4.642;2023-08-24T13:36:33;10.20;;;5.60;;
68250;SDS011;55066;51.560;4.642;2023-08-24T13:38:58;12.43;;;6.10;;
68250;SDS011;55066;51.560;4.642;2023-08-24T13:41:24;12.83;;;5.33;;
68250;SDS011;55066;51.560;4.642;2023-08-24T13:43:49;11.37;;;6.30;;
68250;SDS011;55066;51.560;4.642;2023-08-24T13:46:14;8.67;;;5.00;;
68250;SDS011;55066;51.560;4.642;2023-08-24T13:48:40;9.75;;;5.18;;
68250;SDS011;55066;51.560;4.642;2023-08-24T13:51:05;11.37;;;4.13;;
68250;SDS011;55066;51.560;4.642;2023-08-24T13:53:31;11.83;;;4.40;;
68250;SDS011;55066;51.560;4.642;2023-08-24T13:55:56;7.20;;;3.73;;
68250;SDS011;55066;51.560;4.642;2023-08-24T13:58:22;7.88;;;4.20;;
68250;SDS011;55066;51.560;4.642;2023-08-24T14:00:47;9.37;;;4.07;;
68250;SDS011;55066;51.560;4.642;2023-08-24T14:03:19;10.15;;;3.90;;
68250;SDS011;55066;51.560;4.642;2023-08-24T14:05:45;8.77;;;3.60;;
68250;SDS011;55066;51.560;4.642;2023-08-24T14:08:12;12.05;;;4.03;;
68250;SDS011;55066;51.560;4.642;2023-08-24T14:10:38;6.47;;;3.35;;
68250;SDS011;55066;51.560;4.642;2023-08-24T14:13:04;6.43;;;3.50;;
68250;SDS011;55066;51.560;4.642;2023-08-24T14:15:29;5.97;;;3.70;;
68250;SDS011;55066;51.560;4.642;2023-08-24T14:17:55;8.33;;;3.87;;
68250;SDS011;55066;51.560;4.642;2023-08-24T14:20:20;6.85;;;3.60;;
68250;SDS011;55066;51.560;4.642;2023-08-24T14:22:46;11.33;;;6.53;;
68250;SDS011;55066;51.560;4.642;2023-08-24T14:25:13;8.77;;;3.90;;
68250;SDS011;55066;51.560;4.642;2023-08-24T14:27:39;9.88;;;3.63;;
68250;SDS011;55066;51.560;4.642;2023-08-24T14:30:07;6.17;;;3.40;;
68250;SDS011;55066;51.560;4.642;2023-08-24T14:32:33;8.57;;;3.60;;
68250;SDS011;55066;51.560;4.642;2023-08-24T14:34:58;7.05;;;3.20;;
68250;SDS011;55066;51.560;4.642;2023-08-24T14:37:24;6.40;;;3.10;;
68250;SDS011;55066;51.560;4.642;2023-08-24T14:39:50;6.43;;;3.15;;
68250;SDS011;55066;51.560;4.642;2023-08-24T14:42:16;5.80;;;3.20;;
68250;SDS011;55066;51.560;4.642;2023-08-24T14:44:41;7.38;;;3.20;;
68250;SDS011;55066;51.560;4.642;2023-08-24T14:47:07;6.20;;;3.00;;
68250;SDS011;55066;51.560;4.642;2023-08-24T14:49:32;7.00;;;3.23;;
68250;SDS011;55066;51.560;4.642;2023-08-24T14:51:57;6.57;;;3.00;;
68250;SDS011;55066;51.560;4.642;2023-08-24T14:54:23;7.97;;;3.35;;
68250;SDS011;55066;51.560;4.642;2023-08-24T14:56:48;5.20;;;2.80;;